Time;durP1;ratioP1;P1;durP2;ratioP2;P2;SDS_P1;SDS_P2;PMS_P1;PMS_P2;Temp;Humidity;BMP_temperature;BMP_pressure;BME280_temperature;BME280_humidity;BME280_pressure;Samples;Min_cycle;Max_cycle;Signal;HPM_P1;HPM_P2
2023/04/15 00:00:24;;;;;;;;;;;10.90;99.90;;;;;;5097814;28;20013;-63
2023/04/15 00:02:50;;;;;;;;;;;10.80;99.90;;;;;;5097636;28;20443;-63
2023/04/15 00:05:15;;;;;;;;;;;10.60;99.90;;;;;;5097616;28;20020;-64
2023/04/15 00:07:41;;;;;;;;;;;10.40;99.90;;;;;;5097222;28;19993;-62
2023/04/15 00:10:07;;;;;;;;;;;10.20;99.90;;;;;;5097520;28;20350;-64
2023/04/15 00:12:32;;;;;;;;;;;10.10;99.90;;;;;;5097402;28;19996;-63
2023/04/15 00:14:58;;;;;;;;;;;10.00;99.90;;;;;;5097350;28;20089;-62
2023/04/15 00:17:23;;;;;;;;;;;10.00;99.90;;;;;;5097268;28;20014;-64
2023/04/15 00:19:49;;;;;;;;;;;9.90;99.90;;;;;;5097092;28;20133;-62
2023/04/15 00:22:14;;;;;;;;;;;9.80;99.90;;;;;;5097244;28;19989;-65
2023/04/15 00:24:41;;;;;;;;;;;9.70;99.90;;;;;;5097169;28;20016;-64
2023/04/15 00:27:07;;;;;;;;;;;9.70;99.90;;;;;;5097115;28;20447;-63
2023/04/15 00:29:33;;;;;;;;;;;9.60;99.90;;;;;;5097227;28;19991;-63
2023/04/15 00:31:58;;;;;;;;;;;9.60;99.90;;;;;;5096993;28;19995;-64
2023/04/15 00:34:24;;;;;;;;;;;9.50;99.90;;;;;;5096857;28;20401;-64
2023/04/15 00:36:50;;;;;;;;;;;9.60;99.90;;;;;;5097285;28;20405;-63
2023/04/15 00:39:15;;;;;;;;;;;9.60;99.90;;;;;;5096735;28;20027;-64
2023/04/15 00:41:42;;;;;;;;;;;9.70;99.90;;;;;;5096874;28;20017;-63
2023/04/15 00:44:08;;;;;;;;;;;9.70;99.90;;;;;;5096855;28;19985;-64
2023/04/15 00:46:38;;;;;;;;;;;9.80;99.90;;;;;;5096763;28;20536;-62
2023/04/15 00:49:04;;;;;;;;;;;9.70;99.90;;;;;;5096557;28;20528;-64
2023/04/15 00:51:32;;;;;;;;;;;9.60;99.90;;;;;;5096810;28;20087;-63
2023/04/15 00:53:58;;;;;;;;;;;9.60;99.90;;;;;;5096558;28;19989;-64
2023/04/15 00:56:24;;;;;;;;;;;9.30;99.90;;;;;;5096902;28;20083;-64
2023/04/15 00:58:50;;;;;;;;;;;9.20;99.90;;;;;;5095999;28;19985;-63
2023/04/15 01:01:20;;;;;;;;;;;9.00;99.90;;;;;;5096405;28;20015;-62
2023/04/15 01:03:46;;;;;;;;;;;8.90;99.90;;;;;;5096530;28;19993;-62
2023/04/15 01:06:12;;;;;;;;;;;8.90;99.90;;;;;;5096674;28;20092;-64
2023/04/15 01:08:37;;;;;;;;;;;9.00;99.90;;;;;;5096715;28;19992;-63
2023/04/15 01:11:03;;;;;;;;;;;9.10;99.90;;;;;;5096264;28;20387;-62
2023/04/15 01:13:29;;;;;;;;;;;9.20;99.90;;;;;;5096284;28;20071;-62
2023/04/15 01:15:55;;;;;;;;;;;9.20;99.90;;;;;;5096187;28;20068;-62
2023/04/15 01:18:22;;;;;;;;;;;9.30;99.90;;;;;;5095833;28;19988;-63
2023/04/15 01:20:47;;;;;;;;;;;9.40;99.90;;;;;;5096653;28;20375;-63
2023/04/15 01:23:13;;;;;;;;;;;9.40;99.90;;;;;;5096382;28;19997;-64
2023/04/15 01:25:40;;;;;;;;;;;9.40;99.90;;;;;;5096003;28;20499;-64
2023/04/15 01:28:08;;;;;;;;;;;9.30;99.90;;;;;;5096028;28;19992;-62
2023/04/15 01:30:33;;;;;;;;;;;9.40;99.90;;;;;;5096001;28;20408;-62
2023/04/15 01:33:00;;;;;;;;;;;9.30;99.90;;;;;;5095904;28;20078;-62
2023/04/15 01:35:26;;;;;;;;;;;9.30;99.90;;;;;;5096306;28;20077;-62
2023/04/15 01:37:53;;;;;;;;;;;9.30;99.90;;;;;;5095943;28;20082;-62
2023/04/15 01:40:19;;;;;;;;;;;9.40;99.90;;;;;;5095569;28;20013;-63
2023/04/15 01:42:45;;;;;;;;;;;9.50;99.90;;;;;;5095814;28;20459;-62
2023/04/15 01:45:12;;;;;;;;;;;9.50;99.90;;;;;;5095946;28;19989;-64
2023/04/15 01:47:37;;;;;;;;;;;9.40;99.90;;;;;;5095361;28;20075;-63
2023/04/15 01:50:03;;;;;;;;;;;9.40;99.90;;;;;;5095702;28;20089;-64
2023/04/15 01:52:29;;;;;;;;;;;9.30;99.90;;;;;;5095807;28;20000;-63
2023/04/15 01:54:55;;;;;;;;;;;9.20;99.90;;;;;;5095508;28;19985;-62
2023/04/15 01:57:20;;;;;;;;;;;9.20;99.90;;;;;;5095365;28;20556;-64
2023/04/15 01:59:46;;;;;;;;;;;9.10;99.90;;;;;;5095309;28;19989;-64
2023/04/15 02:02:11;;;;;;;;;;;9.00;99.90;;;;;;5095099;28;19996;-64
2023/04/15 02:04:37;;;;;;;;;;;9.00;99.90;;;;;;5095165;28;19985;-64
2023/04/15 02:07:03;;;;;;;;;;;9.10;99.90;;;;;;5095367;28;19992;-64
2023/04/15 02:09:28;;;;;;;;;;;9.00;99.90;;;;;;5094796;28;20057;-62
2023/04/15 02:11:54;;;;;;;;;;;8.90;99.90;;;;;;5094818;28;19988;-63
2023/04/15 02:14:19;;;;;;;;;;;8.90;99.90;;;;;;5095175;28;20033;-63
2023/04/15 02:16:45;;;;;;;;;;;8.90;99.90;;;;;;5094901;28;20490;-62
2023/04/15 02:19:11;;;;;;;;;;;8.80;99.90;;;;;;5094896;28;19985;-64
2023/04/15 02:21:37;;;;;;;;;;;8.60;99.90;;;;;;5094920;28;20058;-64
2023/04/15 02:24:03;;;;;;;;;;;8.60;99.90;;;;;;5095005;28;20016;-64
2023/04/15 02:26:31;;;;;;;;;;;8.70;99.90;;;;;;5094891;28;19989;-62
2023/04/15 02:28:56;;;;;;;;;;;8.70;99.90;;;;;;5094832;28;19985;-63
2023/04/15 02:31:22;;;;;;;;;;;8.80;99.90;;;;;;5094598;28;19989;-64
2023/04/15 02:33:48;;;;;;;;;;;8.80;99.90;;;;;;5094740;28;20011;-62
2023/04/15 02:36:13;;;;;;;;;;;8.90;99.90;;;;;;5094505;28;20454;-62
2023/04/15 02:38:41;;;;;;;;;;;8.90;99.90;;;;;;5094404;28;20075;-64
2023/04/15 02:41:08;;;;;;;;;;;9.00;99.90;;;;;;5094478;28;20017;-62
2023/04/15 02:43:33;;;;;;;;;;;9.00;99.90;;;;;;5094485;28;20079;-63
2023/04/15 02:45:59;;;;;;;;;;;8.90;99.90;;;;;;5094308;28;20427;-64
2023/04/15 02:48:25;;;;;;;;;;;8.90;99.90;;;;;;5094524;28;19988;-63
2023/04/15 02:50:50;;;;;;;;;;;8.90;99.90;;;;;;5094342;28;20032;-63
2023/04/15 02:53:16;;;;;;;;;;;9.00;99.90;;;;;;5094350;28;19985;-62
2023/04/15 02:55:41;;;;;;;;;;;9.00;99.90;;;;;;5094442;28;19985;-64
2023/04/15 02:58:07;;;;;;;;;;;9.00;99.90;;;;;;5094218;28;20038;-63
2023/04/15 03:00:32;;;;;;;;;;;8.90;99.90;;;;;;5094012;28;20016;-62
2023/04/15 03:03:01;;;;;;;;;;;8.80;99.90;;;;;;5094307;28;20085;-63
2023/04/15 03:05:26;;;;;;;;;;;8.70;99.90;;;;;;5094182;28;20093;-64
2023/04/15 03:07:52;;;;;;;;;;;8.70;99.90;;;;;;5094380;28;19994;-64
2023/04/15 03:10:18;;;;;;;;;;;8.60;99.90;;;;;;5094349;28;19992;-64
2023/04/15 03:12:43;;;;;;;;;;;8.60;99.90;;;;;;5094109;28;19984;-63
2023/04/15 03:15:09;;;;;;;;;;;8.60;99.90;;;;;;5093743;28;19985;-62
2023/04/15 03:17:35;;;;;;;;;;;8.50;99.90;;;;;;5094454;28;20008;-64
2023/04/15 03:20:04;;;;;;;;;;;8.40;99.90;;;;;;5093932;28;20008;-64
2023/04/15 03:22:33;;;;;;;;;;;8.40;99.90;;;;;;5093642;28;19992;-63
2023/04/15 03:24:58;;;;;;;;;;;8.40;99.90;;;;;;5094593;28;20367;-63
2023/04/15 03:27:24;;;;;;;;;;;8.40;99.90;;;;;;5093900;28;19996;-64
2023/04/15 03:29:50;;;;;;;;;;;8.40;99.90;;;;;;5093963;28;19989;-64
2023/04/15 03:32:16;;;;;;;;;;;8.30;99.90;;;;;;5094175;28;19989;-63
2023/04/15 03:34:42;;;;;;;;;;;8.30;99.90;;;;;;5093794;28;20012;-64
2023/04/15 03:37:07;;;;;;;;;;;8.30;99.90;;;;;;5093640;28;19992;-63
2023/04/15 03:39:33;;;;;;;;;;;8.30;99.90;;;;;;5093721;28;20351;-64
2023/04/15 03:41:58;;;;;;;;;;;8.30;99.90;;;;;;5093678;28;20005;-62
2023/04/15 03:44:27;;;;;;;;;;;8.20;99.90;;;;;;5093514;28;20024;-62
2023/04/15 03:46:53;;;;;;;;;;;8.20;99.90;;;;;;5093607;28;20467;-64
2023/04/15 03:49:19;;;;;;;;;;;8.20;99.90;;;;;;5093716;28;19989;-63
2023/04/15 03:51:45;;;;;;;;;;;8.20;99.90;;;;;;5093970;28;20003;-62
2023/04/15 03:54:13;;;;;;;;;;;8.10;99.90;;;;;;5093820;28;20087;-63
2023/04/15 03:56:38;;;;;;;;;;;8.10;99.90;;;;;;5093879;28;20000;-62
2023/04/15 03:59:04;;;;;;;;;;;8.10;99.90;;;;;;5093470;28;19985;-64
2023/04/15 04:01:30;;;;;;;;;;;8.00;99.90;;;;;;5093362;28;20013;-63
2023/04/15 04:03:55;;;;;;;;;;;8.00;99.90;;;;;;5093515;28;20079;-62
2023/04/15 04:06:21;;;;;;;;;;;8.00;99.90;;;;;;5093613;28;20046;-64
2023/04/15 04:08:46;;;;;;;;;;;8.00;99.90;;;;;;5093365;28;19985;-62
2023/04/15 04:11:12;;;;;;;;;;;8.00;99.90;;;;;;5093479;28;20039;-64
2023/04/15 04:13:38;;;;;;;;;;;8.00;99.90;;;;;;5093249;28;19989;-64
2023/04/15 04:16:03;;;;;;;;;;;7.90;99.90;;;;;;5093377;28;19992;-62
2023/04/15 04:18:30;;;;;;;;;;;7.90;99.90;;;;;;5093562;28;20028;-63
2023/04/15 04:20:55;;;;;;;;;;;7.90;99.90;;;;;;5093377;28;20008;-63
2023/04/15 04:23:21;;;;;;;;;;;7.90;99.90;;;;;;5093393;28;20033;-64
2023/04/15 04:25:47;;;;;;;;;;;7.90;99.90;;;;;;5093287;28;19993;-63
2023/04/15 04:28:12;;;;;;;;;;;7.90;99.90;;;;;;5093365;28;19989;-64
2023/04/15 04:30:38;;;;;;;;;;;7.70;99.90;;;;;;5093297;28;20050;-64
2023/04/15 04:33:04;;;;;;;;;;;7.80;99.90;;;;;;5093352;28;19984;-63
2023/04/15 04:35:29;;;;;;;;;;;7.90;99.90;;;;;;5096989;28;20036;-64
2023/04/15 04:37:55;;;;;;;;;;;8.00;99.90;;;;;;5096848;28;20034;-64
2023/04/15 04:40:21;;;;;;;;;;;8.10;99.90;;;;;;5096688;28;20008;-65
2023/04/15 04:42:46;;;;;;;;;;;8.10;99.90;;;;;;5096888;28;20031;-65
2023/04/15 04:45:12;;;;;;;;;;;8.10;99.90;;;;;;5096797;28;20347;-64
2023/04/15 04:47:37;;;;;;;;;;;8.20;99.90;;;;;;5096713;28;19989;-63
2023/04/15 04:50:03;;;;;;;;;;;8.30;99.90;;;;;;5096971;28;19989;-66
2023/04/15 04:52:29;;;;;;;;;;;8.40;99.90;;;;;;5096728;28;19991;-62
2023/04/15 04:54:54;;;;;;;;;;;8.40;99.90;;;;;;5096927;28;20080;-62
2023/04/15 04:57:20;;;;;;;;;;;8.40;99.90;;;;;;5096412;28;20447;-64
2023/04/15 04:59:45;;;;;;;;;;;8.60;99.90;;;;;;5096602;28;19985;-63
2023/04/15 05:02:11;;;;;;;;;;;8.70;99.90;;;;;;5096521;28;19985;-62
2023/04/15 05:04:36;;;;;;;;;;;8.70;99.90;;;;;;5096663;28;20041;-63
2023/04/15 05:07:02;;;;;;;;;;;8.80;99.90;;;;;;5096754;28;20055;-64
2023/04/15 05:09:31;;;;;;;;;;;8.80;99.90;;;;;;5096452;28;19989;-63
2023/04/15 05:11:56;;;;;;;;;;;8.80;99.90;;;;;;5096077;28;20370;-63
2023/04/15 05:14:22;;;;;;;;;;;8.90;99.90;;;;;;5096233;28;19985;-63
2023/04/15 05:16:47;;;;;;;;;;;9.00;99.90;;;;;;5096302;28;19992;-63
2023/04/15 05:19:13;;;;;;;;;;;9.10;99.90;;;;;;5096107;28;20084;-64
2023/04/15 05:21:38;;;;;;;;;;;9.20;99.90;;;;;;5096207;28;20013;-64
2023/04/15 05:24:04;;;;;;;;;;;9.20;99.90;;;;;;5096238;28;20353;-63
2023/04/15 05:26:30;;;;;;;;;;;9.30;99.90;;;;;;5096105;28;20071;-63
2023/04/15 05:28:56;;;;;;;;;;;9.40;99.90;;;;;;5095862;28;19993;-64
2023/04/15 05:31:21;;;;;;;;;;;9.60;99.90;;;;;;5096038;28;20071;-63
2023/04/15 05:33:47;;;;;;;;;;;9.70;99.90;;;;;;5095857;28;19996;-62
2023/04/15 05:36:12;;;;;;;;;;;9.80;99.90;;;;;;5096104;28;19989;-63
2023/04/15 05:38:38;;;;;;;;;;;9.90;99.90;;;;;;5095692;28;20582;-64
2023/04/15 05:41:04;;;;;;;;;;;9.90;99.90;;;;;;5095442;28;20387;-63
2023/04/15 05:43:29;;;;;;;;;;;10.00;99.90;;;;;;5095690;28;19985;-62
2023/04/15 05:45:55;;;;;;;;;;;10.20;99.90;;;;;;5095728;28;19985;-64
2023/04/15 05:48:20;;;;;;;;;;;10.20;99.90;;;;;;5095908;28;19989;-63
2023/04/15 05:50:46;;;;;;;;;;;10.30;99.90;;;;;;5095595;28;20068;-62
2023/04/15 05:53:12;;;;;;;;;;;10.30;99.90;;;;;;5095677;28;20512;-62
2023/04/15 05:55:37;;;;;;;;;;;10.20;99.90;;;;;;5095245;28;20367;-62
2023/04/15 05:58:03;;;;;;;;;;;10.20;99.90;;;;;;5095459;28;19989;-64
2023/04/15 06:00:28;;;;;;;;;;;10.10;99.90;;;;;;5095534;28;20017;-63
2023/04/15 06:02:55;;;;;;;;;;;9.90;99.90;;;;;;5095359;28;19989;-63
2023/04/15 06:05:20;;;;;;;;;;;9.90;99.90;;;;;;5095353;28;19992;-62
2023/04/15 06:07:46;;;;;;;;;;;9.90;99.90;;;;;;5095220;28;19985;-63
2023/04/15 06:10:11;;;;;;;;;;;10.00;99.90;;;;;;5095035;28;20007;-62
2023/04/15 06:12:37;;;;;;;;;;;10.30;99.90;;;;;;5095259;28;20020;-64
2023/04/15 06:15:03;;;;;;;;;;;10.90;99.90;;;;;;5095054;28;20470;-62
2023/04/15 06:17:28;;;;;;;;;;;13.60;99.90;;;;;;5095529;28;19993;-64
2023/04/15 06:19:54;;;;;;;;;;;17.10;84.90;;;;;;5094945;28;20152;-64
2023/04/15 06:22:21;;;;;;;;;;;19.40;62.30;;;;;;5094769;28;20047;-62
2023/04/15 06:24:48;;;;;;;;;;;20.60;56.40;;;;;;5095053;28;19992;-62
2023/04/15 06:27:13;;;;;;;;;;;21.50;51.30;;;;;;5094903;28;19989;-65
2023/04/15 06:29:39;;;;;;;;;;;21.40;50.20;;;;;;5094795;28;20008;-62
2023/04/15 06:32:04;;;;;;;;;;;21.70;49.40;;;;;;5095091;28;19993;-64
2023/04/15 06:34:30;;;;;;;;;;;21.40;46.70;;;;;;5095041;28;20469;-63
2023/04/15 06:36:56;;;;;;;;;;;20.70;48.20;;;;;;5094545;28;20046;-64
2023/04/15 06:39:21;;;;;;;;;;;20.50;48.80;;;;;;5094567;28;20462;-62
2023/04/15 06:41:47;;;;;;;;;;;20.60;49.40;;;;;;5094464;28;20016;-63
2023/04/15 06:44:15;;;;;;;;;;;20.90;47.80;;;;;;5094187;28;20395;-65
2023/04/15 06:46:40;;;;;;;;;;;21.30;48.70;;;;;;5094429;28;19992;-64
2023/04/15 06:49:06;;;;;;;;;;;21.80;47.70;;;;;;5094515;28;19992;-62
2023/04/15 06:51:33;;;;;;;;;;;22.30;45.00;;;;;;5094143;28;20421;-64
2023/04/15 06:53:58;;;;;;;;;;;22.80;43.30;;;;;;5094328;28;19988;-64
2023/04/15 06:56:24;;;;;;;;;;;22.70;42.50;;;;;;5093987;28;19985;-63
2023/04/15 06:58:50;;;;;;;;;;;22.40;42.40;;;;;;5094426;28;19985;-64
2023/04/15 07:01:15;;;;;;;;;;;22.50;44.40;;;;;;5094040;28;20439;-64
2023/04/15 07:03:41;;;;;;;;;;;23.10;43.20;;;;;;5094169;28;20087;-62
2023/04/15 07:06:08;;;;;;;;;;;23.10;43.50;;;;;;5093965;28;19989;-62
2023/04/15 07:08:33;;;;;;;;;;;22.20;42.20;;;;;;5094203;28;19985;-64
2023/04/15 07:11:00;;;;;;;;;;;21.60;42.80;;;;;;5094062;28;20029;-65
2023/04/15 07:13:26;;;;;;;;;;;21.50;44.10;;;;;;5094200;28;20024;-65
2023/04/15 07:15:51;;;;;;;;;;;20.80;43.80;;;;;;5094451;28;19993;-64
2023/04/15 07:18:17;;;;;;;;;;;20.50;44.70;;;;;;5094021;28;20085;-63
2023/04/15 07:20:43;;;;;;;;;;;21.50;45.90;;;;;;5093729;28;20519;-64
2023/04/15 07:23:08;;;;;;;;;;;20.80;45.00;;;;;;5093932;28;20477;-62
2023/04/15 07:25:34;;;;;;;;;;;20.20;46.00;;;;;;5093891;28;19984;-62
2023/04/15 07:28:00;;;;;;;;;;;19.70;45.80;;;;;;5094171;28;19996;-64
2023/04/15 07:30:26;;;;;;;;;;;19.40;46.30;;;;;;5093879;28;19996;-64
2023/04/15 07:32:51;;;;;;;;;;;19.20;45.70;;;;;;5093731;28;19985;-64
2023/04/15 07:35:19;;;;;;;;;;;18.90;48.50;;;;;;5093652;28;20443;-62
2023/04/15 07:37:45;;;;;;;;;;;18.60;49.60;;;;;;5093663;28;20027;-63
2023/04/15 07:40:13;;;;;;;;;;;18.30;48.60;;;;;;5093518;28;20496;-63
2023/04/15 07:42:39;;;;;;;;;;;18.00;49.10;;;;;;5092820;28;20358;-63
2023/04/15 07:45:04;;;;;;;;;;;18.00;49.60;;;;;;5094030;28;19989;-63
2023/04/15 07:47:30;;;;;;;;;;;17.90;49.50;;;;;;5093775;28;19985;-63
2023/04/15 07:49:56;;;;;;;;;;;17.80;49.60;;;;;;5093712;28;20032;-64
2023/04/15 07:52:21;;;;;;;;;;;17.90;48.50;;;;;;5093922;28;19989;-67
2023/04/15 07:54:47;;;;;;;;;;;18.00;48.20;;;;;;5093710;28;20443;-63
2023/04/15 07:57:12;;;;;;;;;;;17.80;48.90;;;;;;5093543;28;20054;-64
2023/04/15 07:59:38;;;;;;;;;;;18.50;47.40;;;;;;5093681;28;19996;-62
2023/04/15 08:02:04;;;;;;;;;;;20.00;47.30;;;;;;5093502;28;20047;-63
2023/04/15 08:04:29;;;;;;;;;;;21.30;44.30;;;;;;5093266;28;20324;-63
2023/04/15 08:06:55;;;;;;;;;;;21.40;43.80;;;;;;5093501;28;20417;-62
2023/04/15 08:09:21;;;;;;;;;;;21.50;43.30;;;;;;5096041;28;20516;-62
2023/04/15 08:11:52;;;;;;;;;;;22.20;43.30;;;;;;5097416;28;20370;-64
2023/04/15 08:14:18;;;;;;;;;;;23.50;42.90;;;;;;5097507;28;19984;-64
2023/04/15 08:16:43;;;;;;;;;;;24.80;40.00;;;;;;5097490;28;19985;-64
2023/04/15 08:19:09;;;;;;;;;;;25.20;40.70;;;;;;5097043;28;19992;-64
2023/04/15 08:21:35;;;;;;;;;;;25.90;39.60;;;;;;5097377;28;20020;-64
2023/04/15 08:24:01;;;;;;;;;;;27.10;39.10;;;;;;5097408;28;20083;-64
2023/04/15 08:26:26;;;;;;;;;;;27.70;38.50;;;;;;5097235;28;20465;-62
2023/04/15 08:28:52;;;;;;;;;;;28.30;36.70;;;;;;5097105;28;20076;-64
2023/04/15 08:31:18;;;;;;;;;;;28.50;35.60;;;;;;5097092;28;20358;-65
2023/04/15 08:33:44;;;;;;;;;;;29.10;36.20;;;;;;5097027;28;20068;-64
2023/04/15 08:36:09;;;;;;;;;;;29.20;34.60;;;;;;5097241;28;20016;-63
2023/04/15 08:38:35;;;;;;;;;;;28.20;32.40;;;;;;5096797;28;20403;-62
2023/04/15 08:41:11;;;;;;;;;;;28.10;33.80;;;;;;5096757;28;20024;-62
2023/04/15 08:43:41;;;;;;;;;;;28.80;34.40;;;;;;5096854;28;19984;-64
2023/04/15 08:46:08;;;;;;;;;;;29.30;32.70;;;;;;5096859;28;19985;-63
2023/04/15 08:48:37;;;;;;;;;;;29.70;33.30;;;;;;5096696;28;19985;-63
2023/04/15 08:51:03;;;;;;;;;;;28.80;32.80;;;;;;5096704;28;19993;-63
2023/04/15 08:53:29;;;;;;;;;;;28.90;33.30;;;;;;5096769;28;19996;-62
2023/04/15 08:55:55;;;;;;;;;;;29.00;32.80;;;;;;5096978;28;19989;-64
2023/04/15 08:58:21;;;;;;;;;;;28.20;30.70;;;;;;5096804;28;20035;-62
2023/04/15 09:00:47;;;;;;;;;;;27.70;33.10;;;;;;5096549;28;20056;-62
2023/04/15 09:03:13;;;;;;;;;;;27.20;35.80;;;;;;5096637;28;19996;-63
2023/04/15 09:05:38;;;;;;;;;;;27.00;37.60;;;;;;5096667;28;19993;-64
2023/04/15 09:08:04;;;;;;;;;;;27.30;38.90;;;;;;5096466;28;20049;-64
2023/04/15 09:10:31;;;;;;;;;;;27.30;35.40;;;;;;5096379;28;19992;-62
2023/04/15 09:12:56;;;;;;;;;;;27.50;34.00;;;;;;5096273;28;19991;-63
2023/04/15 09:15:26;;;;;;;;;;;27.40;34.60;;;;;;5096293;28;19988;-63
2023/04/15 09:17:51;;;;;;;;;;;27.70;35.70;;;;;;5096389;28;20385;-65
2023/04/15 09:20:17;;;;;;;;;;;27.80;35.00;;;;;;5095920;28;20013;-63
2023/04/15 09:22:45;;;;;;;;;;;26.80;33.70;;;;;;5096268;28;20446;-64
2023/04/15 09:25:14;;;;;;;;;;;25.70;34.70;;;;;;5096473;28;19989;-64
2023/04/15 09:27:59;;;;;;;;;;;26.10;35.70;;;;;;5096189;28;20080;-62
2023/04/15 09:30:26;;;;;;;;;;;26.70;33.50;;;;;;5096303;28;19988;-63
2023/04/15 09:32:53;;;;;;;;;;;26.70;32.90;;;;;;5095989;28;20012;-62
2023/04/15 09:35:19;;;;;;;;;;;26.30;35.20;;;;;;5096196;28;20080;-62
2023/04/15 09:37:45;;;;;;;;;;;26.10;34.70;;;;;;5095777;28;20505;-63
2023/04/15 09:40:11;;;;;;;;;;;25.90;34.70;;;;;;5095906;28;20013;-63
2023/04/15 09:42:52;;;;;;;;;;;26.10;35.20;;;;;;5095864;28;19992;-63
2023/04/15 09:45:18;;;;;;;;;;;26.10;34.30;;;;;;5095772;28;20075;-63
2023/04/15 09:47:44;;;;;;;;;;;26.20;32.70;;;;;;5095282;28;20032;-64
2023/04/15 09:50:10;;;;;;;;;;;25.90;34.30;;;;;;5095901;28;20434;-64
2023/04/15 09:52:41;;;;;;;;;;;25.30;34.70;;;;;;5095559;28;20010;-64
2023/04/15 09:55:07;;;;;;;;;;;25.00;34.90;;;;;;5095470;28;20008;-64
2023/04/15 09:57:34;;;;;;;;;;;25.10;39.40;;;;;;5095588;28;20434;-64
2023/04/15 09:59:59;;;;;;;;;;;25.10;36.00;;;;;;5095197;28;19985;-63
2023/04/15 10:02:26;;;;;;;;;;;25.80;33.60;;;;;;5095359;28;19985;-64
2023/04/15 10:04:52;;;;;;;;;;;26.00;38.30;;;;;;5095416;28;19985;-63
2023/04/15 10:07:19;;;;;;;;;;;26.20;34.70;;;;;;5095262;28;19989;-62
2023/04/15 10:09:45;;;;;;;;;;;26.60;36.80;;;;;;5095284;28;19989;-63
2023/04/15 10:12:11;;;;;;;;;;;26.70;34.90;;;;;;5095324;28;20054;-65
2023/04/15 10:14:37;;;;;;;;;;;26.70;37.60;;;;;;5094937;28;19989;-64
2023/04/15 10:17:03;;;;;;;;;;;26.50;34.30;;;;;;5095080;28;20011;-62
2023/04/15 10:19:30;;;;;;;;;;;26.20;34.10;;;;;;5095301;28;19985;-65
2023/04/15 10:21:57;;;;;;;;;;;25.80;36.20;;;;;;5095038;28;20352;-62
2023/04/15 10:24:23;;;;;;;;;;;25.70;37.00;;;;;;5095131;28;19989;-63
2023/04/15 10:26:49;;;;;;;;;;;25.60;37.60;;;;;;5094866;28;20035;-65
2023/04/15 10:29:15;;;;;;;;;;;25.90;36.70;;;;;;5094625;28;19989;-62
2023/04/15 10:31:41;;;;;;;;;;;26.00;37.30;;;;;;5094220;28;19996;-64
2023/04/15 10:34:07;;;;;;;;;;;26.70;34.10;;;;;;5094833;28;20026;-62
2023/04/15 10:36:33;;;;;;;;;;;27.30;34.20;;;;;;5095016;28;20385;-64
2023/04/15 10:38:58;;;;;;;;;;;27.60;34.40;;;;;;5094544;28;20031;-63
2023/04/15 10:41:25;;;;;;;;;;;28.00;33.80;;;;;;5094442;28;20025;-65
2023/04/15 10:43:51;;;;;;;;;;;27.70;33.60;;;;;;5094384;28;20466;-63
2023/04/15 10:46:21;;;;;;;;;;;27.30;32.30;;;;;;5094538;28;19985;-65
2023/04/15 10:48:48;;;;;;;;;;;27.00;33.90;;;;;;5094418;28;19985;-64
2023/04/15 10:51:13;;;;;;;;;;;27.30;31.20;;;;;;5094494;28;20011;-62
2023/04/15 10:53:41;;;;;;;;;;;27.40;34.60;;;;;;5094472;28;19989;-64
2023/04/15 10:56:08;;;;;;;;;;;27.00;32.20;;;;;;5094324;28;20031;-62
2023/04/15 10:58:44;;;;;;;;;;;26.60;33.50;;;;;;5094225;28;20072;-62
2023/04/15 11:01:09;;;;;;;;;;;25.70;29.80;;;;;;5094245;28;20008;-65
2023/04/15 11:03:36;;;;;;;;;;;25.10;30.50;;;;;;5094072;28;19985;-63
2023/04/15 11:06:02;;;;;;;;;;;25.00;30.60;;;;;;5094488;28;19989;-62
2023/04/15 11:08:47;;;;;;;;;;;24.60;30.80;;;;;;5094183;28;20402;-64
2023/04/15 11:11:12;;;;;;;;;;;24.10;32.80;;;;;;5094150;28;20125;-63
2023/04/15 11:13:46;;;;;;;;;;;23.90;32.80;;;;;;5093932;28;20450;-63
2023/04/15 11:16:12;;;;;;;;;;;23.50;34.10;;;;;;5094305;28;20011;-63
2023/04/15 11:18:37;;;;;;;;;;;23.70;33.90;;;;;;5094116;28;20084;-62
2023/04/15 11:21:04;;;;;;;;;;;23.50;33.30;;;;;;5093898;28;20115;-62
2023/04/15 11:23:30;;;;;;;;;;;24.20;33.80;;;;;;5093902;28;20351;-64
2023/04/15 11:25:58;;;;;;;;;;;24.90;32.90;;;;;;5093896;28;19992;-62
2023/04/15 11:28:33;;;;;;;;;;;25.10;33.90;;;;;;5093972;28;19989;-63
2023/04/15 11:31:04;;;;;;;;;;;25.00;31.60;;;;;;5093871;28;19988;-64
2023/04/15 11:33:30;;;;;;;;;;;24.60;31.50;;;;;;5093905;28;19985;-64
2023/04/15 11:35:55;;;;;;;;;;;24.30;33.10;;;;;;5093802;28;20084;-64
2023/04/15 11:38:21;;;;;;;;;;;23.90;33.40;;;;;;5093745;28;20029;-63
2023/04/15 11:40:47;;;;;;;;;;;23.20;36.00;;;;;;5093687;28;20417;-63
2023/04/15 11:43:19;;;;;;;;;;;22.60;36.90;;;;;;5097551;28;20368;-64
2023/04/15 11:45:48;;;;;;;;;;;22.60;38.00;;;;;;5100479;28;20528;-65
2023/04/15 11:48:13;;;;;;;;;;;22.60;36.70;;;;;;5100496;28;20358;-65
2023/04/15 11:50:40;;;;;;;;;;;22.60;36.80;;;;;;5100432;28;19985;-63
2023/04/15 11:53:09;;;;;;;;;;;22.40;37.90;;;;;;5100653;28;19989;-63
2023/04/15 11:55:51;;;;;;;;;;;22.00;38.60;;;;;;5100520;28;20008;-64
2023/04/15 11:58:24;;;;;;;;;;;21.70;41.20;;;;;;5100129;28;19989;-64
2023/04/15 12:00:49;;;;;;;;;;;21.90;40.70;;;;;;5100365;28;20035;-64
2023/04/15 12:03:22;;;;;;;;;;;22.00;40.30;;;;;;5100630;28;19989;-62
2023/04/15 12:06:06;;;;;;;;;;;22.10;40.30;;;;;;5100303;28;19996;-63
2023/04/15 12:08:51;;;;;;;;;;;22.10;39.10;;;;;;5100530;28;19988;-64
2023/04/15 12:11:20;;;;;;;;;;;22.10;40.20;;;;;;5100070;28;20447;-63
2023/04/15 12:13:47;;;;;;;;;;;22.20;39.20;;;;;;5100514;28;19985;-62
2023/04/15 12:16:15;;;;;;;;;;;21.80;39.10;;;;;;5100120;28;19985;-62
2023/04/15 12:18:41;;;;;;;;;;;21.60;39.70;;;;;;5100305;28;20008;-62
2023/04/15 12:21:10;;;;;;;;;;;21.30;39.20;;;;;;5100402;28;20458;-62
2023/04/15 12:23:37;;;;;;;;;;;21.00;39.90;;;;;;5100385;28;20324;-63
2023/04/15 12:26:06;;;;;;;;;;;20.80;41.20;;;;;;5099959;28;20499;-63
2023/04/15 12:28:33;;;;;;;;;;;20.80;40.80;;;;;;5100386;28;20027;-63
2023/04/15 12:30:58;;;;;;;;;;;20.70;42.10;;;;;;5099982;28;20486;-62
2023/04/15 12:33:31;;;;;;;;;;;20.70;44.50;;;;;;5100266;28;19985;-62
2023/04/15 12:35:57;;;;;;;;;;;20.30;45.60;;;;;;5100026;28;19985;-62
2023/04/15 12:38:22;;;;;;;;;;;20.00;41.00;;;;;;5099968;28;20097;-61
2023/04/15 12:40:48;;;;;;;;;;;19.70;41.30;;;;;;5099644;28;20028;-64
2023/04/15 12:43:13;;;;;;;;;;;20.00;41.10;;;;;;5099995;28;19984;-62
2023/04/15 12:45:39;;;;;;;;;;;20.20;42.00;;;;;;5099907;28;19992;-62
2023/04/15 12:48:05;;;;;;;;;;;20.30;42.50;;;;;;5099875;28;19985;-61
2023/04/15 12:50:30;;;;;;;;;;;21.00;42.50;;;;;;5099934;28;19992;-63
2023/04/15 12:52:56;;;;;;;;;;;21.40;44.20;;;;;;5099862;28;19985;-63
2023/04/15 12:55:22;;;;;;;;;;;20.90;43.70;;;;;;5096534;28;19985;-63
2023/04/15 12:57:48;;;;;;;;;;;20.70;45.80;;;;;;5096739;28;19985;-62
2023/04/15 13:00:13;;;;;;;;;;;21.20;43.40;;;;;;5096474;28;20008;-62
2023/04/15 13:02:39;;;;;;;;;;;21.60;41.70;;;;;;5096723;28;20462;-63
2023/04/15 13:05:05;;;;;;;;;;;22.10;37.80;;;;;;5096568;28;20493;-63
2023/04/15 13:07:31;;;;;;;;;;;22.80;43.10;;;;;;5096510;28;20138;-63
2023/04/15 13:09:56;;;;;;;;;;;23.50;42.50;;;;;;5096388;28;20459;-64
2023/04/15 13:12:22;;;;;;;;;;;24.10;43.90;;;;;;5096423;28;20434;-61
2023/04/15 13:14:48;;;;;;;;;;;24.40;36.40;;;;;;5096440;28;20084;-63
2023/04/15 13:17:13;;;;;;;;;;;24.60;39.60;;;;;;5096236;28;19989;-63
2023/04/15 13:19:39;;;;;;;;;;;24.60;43.70;;;;;;5096292;28;20494;-64
2023/04/15 13:22:05;;;;;;;;;;;24.90;38.80;;;;;;5096190;28;20363;-61
2023/04/15 13:24:31;;;;;;;;;;;25.10;36.30;;;;;;5095916;28;19984;-64
2023/04/15 13:26:58;;;;;;;;;;;25.00;36.00;;;;;;5096119;28;20131;-63
2023/04/15 13:29:23;;;;;;;;;;;25.10;35.60;;;;;;5096337;28;20359;-62
2023/04/15 13:31:49;;;;;;;;;;;24.00;37.50;;;;;;5095896;28;19985;-64
2023/04/15 13:34:14;;;;;;;;;;;23.70;37.80;;;;;;5095980;28;20492;-62
2023/04/15 13:36:40;;;;;;;;;;;23.80;39.20;;;;;;5095888;28;19996;-60
2023/04/15 13:39:06;;;;;;;;;;;24.10;38.30;;;;;;5095479;28;20046;-62
2023/04/15 13:41:31;;;;;;;;;;;24.10;37.90;;;;;;5095928;28;20029;-61
2023/04/15 13:43:57;;;;;;;;;;;23.10;38.70;;;;;;5096105;28;19989;-63
2023/04/15 13:46:24;;;;;;;;;;;22.50;38.20;;;;;;5095860;28;19989;-61
2023/04/15 13:48:50;;;;;;;;;;;22.00;40.10;;;;;;5095647;28;20073;-64
2023/04/15 13:51:15;;;;;;;;;;;21.60;41.10;;;;;;5095626;28;19989;-61
2023/04/15 13:53:41;;;;;;;;;;;21.30;40.50;;;;;;5095514;28;19989;-63
2023/04/15 13:56:07;;;;;;;;;;;21.40;41.00;;;;;;5095447;28;19989;-63
2023/04/15 13:58:32;;;;;;;;;;;21.90;41.30;;;;;;5095516;28;19985;-62
2023/04/15 14:00:58;;;;;;;;;;;22.30;41.10;;;;;;5095397;28;20013;-63
2023/04/15 14:03:24;;;;;;;;;;;22.60;40.90;;;;;;5095314;28;20386;-62
2023/04/15 14:05:54;;;;;;;;;;;22.80;41.60;;;;;;5094367;28;19989;-64
2023/04/15 14:08:20;;;;;;;;;;;22.80;39.50;;;;;;5095006;28;19996;-64
2023/04/15 14:10:48;;;;;;;;;;;22.90;39.30;;;;;;5095198;28;20026;-62
2023/04/15 14:13:14;;;;;;;;;;;22.80;38.60;;;;;;5095486;28;19989;-64
2023/04/15 14:15:40;;;;;;;;;;;22.90;38.70;;;;;;5095180;28;19985;-61